Orbital elements of COSMOS 970 DEB
| Launched | 20 December 1977 |
| Flight ended | – |
| Launch site | Tyuratam Missile and Space Center, Kazakhstan (Also known as Baikonur Cosmodrome) |
| Owner | Commonwealth of Independent States (former USSR) |
| NORAD ID | 64976 |
| Date fetched |
Epoch osculation |
Inc. [°] |
Ecc. | RA asc node [hr] |
Arg Peri. [°] |
Mean anom [°] |
Mean motion [rev/day] |
Abs. mag |
| Date fetched |
Epoch osculation |
Inc. [°] |
Ecc. | RA asc node [hr] |
Arg Peri. [°] |
Mean anom [°] |
Mean motion [rev/day] |
Abs. mag |
| 2026 May 03 17:57 | 2026 Apr 30 11:21:22 | 65.9365 | 0.01048 | 8.6934 | 286.4307 | 226.7970 | 13.32860 | – |
| 2026 May 02 17:57 | 2026 Apr 30 11:21:22 | 65.9365 | 0.01048 | 8.6934 | 286.4307 | 226.7970 | 13.32860 | – |
| 2026 May 01 17:56 | 2026 Apr 30 11:21:22 | 65.9365 | 0.01048 | 8.6934 | 286.4307 | 226.7970 | 13.32860 | – |
| 2026 Apr 30 17:56 | 2026 Apr 30 11:21:22 | 65.9365 | 0.01048 | 8.6934 | 286.4307 | 226.7970 | 13.32860 | – |
| 2026 Apr 29 17:57 | 2026 Apr 23 11:27:49 | 65.9369 | 0.01046 | 9.7608 | 289.4799 | 226.7970 | 13.32860 | – |
| 2026 Apr 28 17:56 | 2026 Apr 23 11:27:49 | 65.9369 | 0.01046 | 9.7608 | 289.4799 | 226.7970 | 13.32860 | – |
| 2026 Apr 27 17:58 | 2026 Apr 23 11:27:49 | 65.9369 | 0.01046 | 9.7608 | 289.4799 | 226.7970 | 13.32860 | – |
| 2026 Apr 26 17:58 | 2026 Apr 23 11:27:49 | 65.9369 | 0.01046 | 9.7608 | 289.4799 | 226.7970 | 13.32860 | – |
| 2026 Apr 25 17:58 | 2026 Apr 23 11:27:49 | 65.9369 | 0.01046 | 9.7608 | 289.4799 | 226.7970 | 13.32860 | – |
| 2026 Apr 24 17:59 | 2026 Apr 23 11:27:49 | 65.9369 | 0.01046 | 9.7608 | 289.4799 | 226.7970 | 13.32860 | – |
| 2026 Apr 23 17:57 | 2026 Apr 19 02:48:28 | 65.9382 | 0.01043 | 10.4261 | 291.3951 | 226.7970 | 13.32860 | – |
| 2026 Apr 22 17:57 | 2026 Apr 19 02:48:28 | 65.9382 | 0.01043 | 10.4261 | 291.3951 | 226.7970 | 13.32860 | – |
| 2026 Apr 21 17:57 | 2026 Apr 19 02:48:28 | 65.9382 | 0.01043 | 10.4261 | 291.3951 | 226.7970 | 13.32860 | – |
| 2026 Apr 20 17:57 | 2026 Apr 19 02:48:28 | 65.9382 | 0.01043 | 10.4261 | 291.3951 | 226.7970 | 13.32860 | – |
| 2026 Apr 19 17:58 | 2026 Apr 19 02:48:28 | 65.9382 | 0.01043 | 10.4261 | 291.3951 | 226.7970 | 13.32860 | – |
| 2026 Apr 18 17:56 | 2026 Apr 11 15:20:47 | 65.9392 | 0.01039 | 11.5668 | 294.7127 | 226.7970 | 13.32860 | – |
| 2026 Apr 16 17:57 | 2026 Apr 11 15:20:47 | 65.9392 | 0.01039 | 11.5668 | 294.7127 | 226.7970 | 13.32860 | – |
| 2026 Apr 14 17:57 | 2026 Apr 11 15:20:47 | 65.9392 | 0.01039 | 11.5668 | 294.7127 | 226.7970 | 13.32860 | – |
| 2026 Apr 13 17:57 | 2026 Apr 11 15:20:47 | 65.9392 | 0.01039 | 11.5668 | 294.7127 | 226.7970 | 13.32860 | – |
| 2026 Apr 12 17:57 | 2026 Apr 08 15:17:54 | 65.9392 | 0.01036 | 12.0248 | 296.0797 | 226.7970 | 13.32860 | – |
| 2026 Apr 11 17:57 | 2026 Apr 08 15:17:54 | 65.9392 | 0.01036 | 12.0248 | 296.0797 | 226.7970 | 13.32860 | – |
| 2026 Apr 10 17:58 | 2026 Apr 08 15:17:54 | 65.9392 | 0.01036 | 12.0248 | 296.0797 | 226.7970 | 13.32860 | – |
| 2026 Apr 09 18:01 | 2026 Apr 08 15:17:54 | 65.9392 | 0.01036 | 12.0248 | 296.0797 | 226.7970 | 13.32860 | – |
| 2026 Apr 08 17:57 | 2026 Apr 08 15:17:54 | 65.9392 | 0.01036 | 12.0248 | 296.0797 | 226.7970 | 13.32860 | – |
| 2026 Apr 07 17:57 | 2026 Mar 28 18:11:12 | 65.9392 | 0.01026 | 13.6845 | 301.0835 | 226.7970 | 13.32860 | – |
| 2026 Apr 06 17:57 | 2026 Mar 28 18:11:12 | 65.9392 | 0.01026 | 13.6845 | 301.0835 | 226.7970 | 13.32860 | – |